createdAt,value
2023-03-06T00:00:40.740Z,4.59
2023-03-06T00:06:40.329Z,4.36
2023-03-06T00:13:57.944Z,5.58
2023-03-06T00:18:42.468Z,4.62
2023-03-06T00:25:10.525Z,5.51
2023-03-06T00:48:20.185Z,5.78
2023-03-06T00:53:23.411Z,4.25
2023-03-06T00:58:27.312Z,4.31
2023-03-06T01:03:31.887Z,5.09
2023-03-06T01:08:34.377Z,5.29
2023-03-06T01:13:42.731Z,5.67
2023-03-06T01:18:41.783Z,4.75
2023-03-06T01:24:08.895Z,5.65
2023-03-06T01:34:43.925Z,4.21
2023-03-06T01:39:56.246Z,4.25
2023-03-06T01:45:08.532Z,4.28
2023-03-06T01:56:38.643Z,5.27
2023-03-06T02:01:41.307Z,4.22
2023-03-06T02:07:00.700Z,5.14
2023-03-06T02:12:21.568Z,5.08
2023-03-06T02:17:28.403Z,3.76
2023-03-06T02:22:24.827Z,4.08
2023-03-06T02:27:20.835Z,4.54
2023-03-06T02:32:17.361Z,4.06
2023-03-06T02:37:20.312Z,5.31
2023-03-06T02:42:25.609Z,3.94
2023-03-06T02:54:50.922Z,3.89
2023-03-06T03:00:55.440Z,4.52
2023-03-06T03:06:05.230Z,4.71
2023-03-06T03:11:24.129Z,3.95
2023-03-06T03:17:15.918Z,3.48
2023-03-06T03:22:31.592Z,3.10
2023-03-06T03:27:42.915Z,3.44
2023-03-06T03:39:34.970Z,4.58
2023-03-06T03:44:32.824Z,4.10
2023-03-06T03:49:30.829Z,4.01
2023-03-06T03:55:12.179Z,4.89
2023-03-06T04:13:18.259Z,4.61
2023-03-06T04:18:37.782Z,4.65
2023-03-06T04:30:19.192Z,3.68
2023-03-06T04:35:37.762Z,3.71
2023-03-06T04:41:14.288Z,3.99
2023-03-06T04:47:23.576Z,3.79
2023-03-06T04:53:40.541Z,3.15
2023-03-06T04:59:55.147Z,4.97
2023-03-06T05:18:09.411Z,3.81
2023-03-06T05:34:50.857Z,3.77
2023-03-06T05:40:20.918Z,4.85
2023-03-06T05:46:04.379Z,3.02
2023-03-06T05:51:38.810Z,4.77
2023-03-06T05:56:43.369Z,3.22
2023-03-06T06:01:58.627Z,4.18
2023-03-06T06:07:07.877Z,3.07
2023-03-06T06:20:16.201Z,4.29
2023-03-06T06:45:33.521Z,3.49
2023-03-06T06:58:50.569Z,4.40
2023-03-06T08:33:51.087Z,8.19
2023-03-06T08:38:44.441Z,8.43
2023-03-06T08:43:40.407Z,8.16
2023-03-06T08:48:33.944Z,8.55
2023-03-06T08:53:42.076Z,8.30
2023-03-06T08:58:36.241Z,8.35
2023-03-06T09:03:32.513Z,9.34
2023-03-06T09:08:25.853Z,9.65
2023-03-06T09:13:20.604Z,10.11
2023-03-06T09:18:16.261Z,10.96
2023-03-06T09:23:13.433Z,11.78
2023-03-06T09:28:11.729Z,12.19
2023-03-06T09:33:07.065Z,12.87
2023-03-06T09:38:02.782Z,12.71
2023-03-06T09:43:00.378Z,13.76
2023-03-06T09:48:01.950Z,13.55
2023-03-06T09:53:08.530Z,13.99
2023-03-06T09:58:08.940Z,13.87
2023-03-06T10:03:19.096Z,13.78
2023-03-06T10:08:25.119Z,13.11
2023-03-06T10:13:26.329Z,13.06
2023-03-06T10:18:21.704Z,13.35
2023-03-06T10:23:31.494Z,12.98
2023-03-06T10:28:30.767Z,13.17
2023-03-06T10:33:34.963Z,13.69
2023-03-06T10:38:37.912Z,13.74
2023-03-06T10:43:36.476Z,14.32
2023-03-06T10:48:32.959Z,13.85
2023-03-06T10:53:30.472Z,14.21
2023-03-06T10:58:26.810Z,14.09
2023-03-06T11:03:24.191Z,13.76
2023-03-06T11:08:23.470Z,13.76
2023-03-06T11:13:27.654Z,14.62
2023-03-06T11:18:35.289Z,14.92
2023-03-06T11:23:40.581Z,14.55
2023-03-06T11:28:40.916Z,13.98
2023-03-06T11:33:37.634Z,14.94
2023-03-06T11:38:41.760Z,14.78
2023-03-06T11:43:51.044Z,14.66
2023-03-06T11:48:52.431Z,15.87
2023-03-06T11:53:45.811Z,15.78
2023-03-06T11:59:01.930Z,15.80
2023-03-06T12:04:27.007Z,16.48
2023-03-06T12:09:40.856Z,15.97
2023-03-06T12:14:52.391Z,15.47
2023-03-06T12:19:59.591Z,15.48
2023-03-06T12:25:10.445Z,14.96
2023-03-06T12:30:30.351Z,15.43
2023-03-06T12:35:50.545Z,15.54
2023-03-06T12:41:14.835Z,15.21
2023-03-06T12:46:21.648Z,14.47
2023-03-06T12:51:24.123Z,15.20
2023-03-06T12:56:19.702Z,16.35
2023-03-06T13:01:24.157Z,16.92
2023-03-06T13:06:34.170Z,16.46
2023-03-06T13:12:01.690Z,16.38
2023-03-06T13:16:56.417Z,16.76
2023-03-06T13:22:27.949Z,17.98
2023-03-06T13:27:46.137Z,17.89
2023-03-06T13:32:43.364Z,16.36
2023-03-06T13:37:50.997Z,15.86
2023-03-06T13:43:05.007Z,15.33
2023-03-06T13:48:37.503Z,14.08
2023-03-06T13:53:36.410Z,13.84
2023-03-06T13:58:45.950Z,13.96
2023-03-06T14:04:10.288Z,13.94
2023-03-06T14:09:06.402Z,13.70
2023-03-06T14:14:00.892Z,13.42
2023-03-06T14:18:57.344Z,13.46
2023-03-06T14:24:03.145Z,13.29
2023-03-06T14:28:58.469Z,12.36
2023-03-06T14:33:54.344Z,12.12
2023-03-06T14:39:04.412Z,13.15
2023-03-06T14:44:20.623Z,13.10
2023-03-06T14:49:40.631Z,11.90
2023-03-06T14:54:50.793Z,12.60
2023-03-06T15:00:05.585Z,12.57
2023-03-06T15:05:22.776Z,12.90
2023-03-06T15:10:31.664Z,12.99
2023-03-06T15:15:45.167Z,12.49
2023-03-06T15:20:58.954Z,12.99
2023-03-06T15:26:37.437Z,11.90
2023-03-06T15:31:39.757Z,11.43
2023-03-06T15:36:44.706Z,12.26
2023-03-06T15:41:43.271Z,11.39
2023-03-06T15:46:37.643Z,12.35
2023-03-06T16:11:07.833Z,10.59
2023-03-06T16:16:22.385Z,11.29
2023-03-06T16:21:27.341Z,11.11
2023-03-06T16:26:32.508Z,10.37
2023-03-06T16:31:28.206Z,10.31
2023-03-06T16:36:26.612Z,10.27
2023-03-06T16:41:21.085Z,10.00
2023-03-06T16:46:35.905Z,10.18
2023-03-06T16:51:30.298Z,9.89
2023-03-06T16:56:23.687Z,9.93
2023-03-06T17:01:30.247Z,9.61
2023-03-06T17:06:25.977Z,8.81
2023-03-06T17:11:24.096Z,9.45
2023-03-06T17:16:18.140Z,8.98
2023-03-06T17:21:15.747Z,9.34
2023-03-06T17:26:10.701Z,8.96
2023-03-06T17:31:05.427Z,8.36
2023-03-06T17:36:00.527Z,8.92
2023-03-06T17:40:55.398Z,8.40
2023-03-06T17:45:51.339Z,8.31
2023-03-06T17:50:53.618Z,8.60
2023-03-06T17:55:52.880Z,8.12
2023-03-06T18:00:48.422Z,7.55
2023-03-06T18:05:43.513Z,7.20
2023-03-06T18:10:39.440Z,8.03
2023-03-06T18:15:34.844Z,8.05
2023-03-06T18:20:59.027Z,7.81
2023-03-06T18:25:54.879Z,7.50
2023-03-06T18:30:48.338Z,6.63
2023-03-06T18:35:49.674Z,6.60
2023-03-06T18:40:52.647Z,6.84
2023-03-06T18:45:56.731Z,7.77
2023-03-06T18:50:55.573Z,7.81
2023-03-06T18:55:49.422Z,7.58
2023-03-06T19:00:43.498Z,7.90
2023-03-06T19:05:41.700Z,7.71
2023-03-06T19:10:37.441Z,7.80
2023-03-06T19:15:30.823Z,7.27
2023-03-06T19:20:27.070Z,6.99
2023-03-06T19:25:34.104Z,7.26
2023-03-06T19:30:28.789Z,7.15
2023-03-06T19:35:23.681Z,6.61
2023-03-06T19:40:17.342Z,6.91
2023-03-06T19:45:12.984Z,7.21
2023-03-06T19:50:11.559Z,7.74
2023-03-06T19:55:06.356Z,7.76
2023-03-06T19:59:59.678Z,7.70
2023-03-06T20:04:55.779Z,7.66
2023-03-06T20:10:08.609Z,7.59
2023-03-06T20:20:41.432Z,7.67
2023-03-06T20:25:38.452Z,7.95
2023-03-06T20:30:40.300Z,6.75
2023-03-06T20:36:00.829Z,6.67
2023-03-06T20:42:07.210Z,7.30
2023-03-06T20:47:05.608Z,6.63
2023-03-06T20:51:58.916Z,6.27
2023-03-06T20:56:52.419Z,5.81
2023-03-06T21:01:48.150Z,6.91
2023-03-06T21:06:47.138Z,5.81
2023-03-06T21:11:40.434Z,5.61
2023-03-06T21:16:33.909Z,5.79
2023-03-06T21:21:32.949Z,6.18
2023-03-06T21:26:30.491Z,5.63
2023-03-06T21:31:23.964Z,5.83
2023-03-06T21:36:18.515Z,5.82
2023-03-06T21:41:13.414Z,5.47
2023-03-06T21:46:09.064Z,6.38
2023-03-06T21:51:07.797Z,5.31
2023-03-06T21:56:04.071Z,5.85
2023-03-06T22:00:57.515Z,6.15
2023-03-06T22:05:53.232Z,5.31
2023-03-06T22:10:48.507Z,6.02
2023-03-06T22:15:49.734Z,6.13
2023-03-06T22:20:43.081Z,6.23
2023-03-06T22:25:37.854Z,5.68
2023-03-06T22:30:31.100Z,6.63
2023-03-06T22:35:36.142Z,6.59
2023-03-06T22:40:29.628Z,6.44
2023-03-06T22:45:42.759Z,5.79
2023-03-06T22:50:39.050Z,5.41
2023-03-06T22:55:32.263Z,6.16
2023-03-06T23:00:30.465Z,5.13
2023-03-06T23:05:27.900Z,5.78
2023-03-06T23:10:22.567Z,5.38
2023-03-06T23:15:38.246Z,5.78
2023-03-06T23:20:50.327Z,4.97
2023-03-06T23:26:02.278Z,5.74
2023-03-06T23:30:57.019Z,5.71
2023-03-06T23:35:52.225Z,5.13
2023-03-06T23:40:45.442Z,5.05
2023-03-06T23:45:40.932Z,5.20
2023-03-06T23:51:03.323Z,5.25
2023-03-06T23:55:56.490Z,5.90
